| time (UTC) | temp C | wind direction | speed KPH | gust KPH | rain 1hr cm | rain 24hr cm | rain mn cm | humidity % | barometer mb |
| 20260509224432 | 24 | 196 | 0.0 | 3.2 | 0.00 | 0.00 | 0.00 | 41 | 1009.5 |
| 20260509223929 | 24 | 191 | 0.0 | 0.0 | 0.00 | 0.00 | 0.00 | 44 | 1009.5 |
| 20260509223425 | 23 | 161 | 0.0 | 4.8 | 0.00 | 0.00 | 0.00 | 44 | 1009.4 |
| 20260509222923 | 24 | 196 | 0.0 | 0.0 | 0.00 | 0.00 | 0.00 | 42 | 1009.6 |
| 20260509222418 | 24 | 206 | 1.6 | 3.2 | 0.00 | 0.00 | 0.00 | 43 | 1009.4 |
| 20260509221913 | 23 | 326 | 4.8 | 8.0 | 0.00 | 0.00 | 0.00 | 43 | 1009.5 |
| 20260509221405 | 23 | 54 | 3.2 | 4.8 | 0.00 | 0.00 | 0.00 | 44 | 1009.4 |
| 20260509220901 | 23 | 189 | 1.6 | 3.2 | 0.00 | 0.00 | 0.00 | 46 | 1009.4 |
| 20260509220357 | 23 | 96 | 4.8 | 8.0 | 0.00 | 0.00 | 0.00 | 47 | 1009.3 |
| 20260509215852 | 22 | 122 | 0.0 | 4.8 | 0.00 | 0.00 | 0.00 | 45 | 1009.6 |
| 20260509215349 | 22 | 122 | 1.6 | 3.2 | 0.00 | 0.00 | 0.00 | 45 | 1009.4 |
| 20260509214846 | 23 | 188 | 0.0 | 3.2 | 0.00 | 0.00 | 0.00 | 43 | 1009.5 |
| 20260509214344 | 22 | 112 | 1.6 | 8.0 | 0.00 | 0.00 | 0.00 | 45 | 1009.4 |
| 20260509213840 | 22 | 119 | 0.0 | 3.2 | 0.00 | 0.00 | 0.00 | 45 | 1009.2 |
| 20260509213336 | 22 | 136 | 1.6 | 4.8 | 0.00 | 0.00 | 0.00 | 46 | 1009.2 |
| 20260509212834 | 22 | 121 | 0.0 | 4.8 | 0.00 | 0.00 | 0.00 | 45 | 1009.4 |
| 20260509212331 | 23 | 180 | 0.0 | 0.0 | 0.00 | 0.00 | 0.00 | 45 | 1009.3 |
| 20260509211827 | 22 | 181 | 0.0 | 0.0 | 0.00 | 0.00 | 0.00 | 46 | 1009.3 |
| 20260509211323 | 22 | 128 | 0.0 | 4.8 | 0.00 | 0.00 | 0.00 | 46 | 1009.3 |
| 20260509210819 | 22 | 145 | 0.0 | 3.2 | 0.00 | 0.00 | 0.00 | 49 | 1009.0 |
| 20260509210312 | 22 | 96 | 4.8 | 4.8 | 0.00 | 0.00 | 0.00 | 47 | 1009.2 |
| 20260509205811 | 21 | 157 | 3.2 | 4.8 | 0.00 | 0.00 | 0.00 | 46 | 1009.2 |
| 20260509205307 | 22 | 96 | 4.8 | 8.0 | 0.00 | 0.00 | 0.00 | 47 | 1009.3 |
| 20260509204802 | 22 | 102 | 3.2 | 4.8 | 0.00 | 0.00 | 0.00 | 47 | 1009.0 |
| 20260509204259 | 22 | 99 | 3.2 | 3.2 | 0.00 | 0.00 | 0.00 | 47 | 1009.2 |
| 20260509203754 | 22 | 127 | 0.0 | 11.3 | 0.00 | 0.00 | 0.00 | 47 | 1009.0 |
| 20260509203252 | 22 | 122 | 3.2 | 4.8 | 0.00 | 0.00 | 0.00 | 49 | 1008.9 |
| 20260509202748 | 22 | 352 | 4.8 | 11.3 | 0.00 | 0.00 | 0.00 | 47 | 1008.8 |
| 20260509202239 | 22 | 80 | 4.8 | 8.0 | 0.00 | 0.00 | 0.00 | 46 | 1008.8 |
| 20260509201739 | 22 | 78 | 4.8 | 4.8 | 0.00 | 0.00 | 0.00 | 47 | 1009.0 |
| 20260509201236 | 22 | 334 | 1.6 | 4.8 | 0.00 | 0.00 | 0.00 | 46 | 1009.2 |
| 20260509200732 | 22 | 127 | 0.0 | 4.8 | 0.00 | 0.00 | 0.00 | 48 | 1009.2 |
| 20260509200227 | 22 | 15 | 3.2 | 3.2 | 0.00 | 0.00 | 0.00 | 47 | 1009.0 |
| 20260509195723 | 21 | 128 | 0.0 | 4.8 | 0.00 | 0.00 | 0.00 | 46 | 1009.2 |
| 20260509195218 | 22 | 164 | 1.6 | 3.2 | 0.00 | 0.00 | 0.00 | 48 | 1009.3 |
| 20260509194713 | 22 | 76 | 1.6 | 4.8 | 0.00 | 0.00 | 0.00 | 46 | 1009.4 |
| 20260509194210 | 22 | 89 | 6.4 | 11.3 | 0.00 | 0.00 | 0.00 | 46 | 1009.4 |
| 20260509193706 | 22 | 102 | 1.6 | 4.8 | 0.00 | 0.00 | 0.00 | 48 | 1009.4 |
| 20260509193206 | 22 | 176 | 4.8 | 8.0 | 0.00 | 0.00 | 0.00 | 47 | 1009.5 |
| 20260509192703 | 22 | 191 | 0.0 | 12.9 | 0.00 | 0.00 | 0.00 | 48 | 1009.6 |
| 20260509192158 | 21 | 123 | 1.6 | 12.9 | 0.00 | 0.00 | 0.00 | 47 | 1009.6 |
| 20260509191654 | 23 | 90 | 11.3 | 12.9 | 0.00 | 0.00 | 0.00 | 46 | 1009.5 |
| 20260509191150 | 22 | 91 | 8.0 | 12.9 | 0.00 | 0.00 | 0.00 | 46 | 1009.5 |
| 20260509190646 | 23 | 205 | 1.6 | 11.3 | 0.00 | 0.00 | 0.00 | 46 | 1009.7 |
| 20260509190144 | 22 | 181 | 1.6 | 4.8 | 0.00 | 0.00 | 0.00 | 46 | 1009.6 |
| 20260509185642 | 22 | 91 | 6.4 | 11.3 | 0.00 | 0.00 | 0.00 | 46 | 1009.7 |
| 20260509185137 | 22 | 153 | 4.8 | 16.1 | 0.00 | 0.00 | 0.00 | 48 | 1009.6 |
| 20260509184636 | 22 | 225 | 8.0 | 12.9 | 0.00 | 0.00 | 0.00 | 45 | 1009.8 |
| 20260509184132 | 22 | 149 | 14.5 | 30.6 | 0.00 | 0.00 | 0.00 | 49 | 1009.7 |
| 20260509183628 | 22 | 147 | 0.0 | 11.3 | 0.00 | 0.00 | 0.00 | 49 | 1009.9 |
| 20260509183124 | 21 | 124 | 8.0 | 16.1 | 0.00 | 0.00 | 0.00 | 50 | 1010.1 |
| 20260509182619 | 21 | 80 | 8.0 | 12.9 | 0.00 | 0.00 | 0.00 | 49 | 1010.3 |
| 20260509182117 | 21 | 128 | 8.0 | 17.7 | 0.00 | 0.00 | 0.00 | 47 | 1010.4 |
| 20260509181615 | 21 | 340 | 6.4 | 11.3 | 0.00 | 0.00 | 0.00 | 51 | 1010.4 |
| 20260509181112 | 21 | 109 | 4.8 | 11.3 | 0.00 | 0.00 | 0.00 | 47 | 1010.8 |
| 20260509180609 | 21 | 31 | 4.8 | 16.1 | 0.00 | 0.00 | 0.00 | 49 | 1010.6 |
| 20260509180105 | 21 | 171 | 0.0 | 4.8 | 0.00 | 0.00 | 0.00 | 47 | 1010.8 |
| 20260509175601 | 20 | 154 | 11.3 | 12.9 | 0.00 | 0.00 | 0.00 | 49 | 1010.7 |
| 20260509175058 | 21 | 63 | 8.0 | 17.7 | 0.00 | 0.00 | 0.00 | 48 | 1010.6 |
| 20260509174554 | 21 | 165 | 4.8 | 11.3 | 0.00 | 0.00 | 0.00 | 48 | 1010.8 |
| 20260509174049 | 20 | 117 | 4.8 | 8.0 | 0.00 | 0.00 | 0.00 | 48 | 1010.8 |
| 20260509173544 | 20 | 99 | 0.0 | 4.8 | 0.00 | 0.00 | 0.00 | 49 | 1010.6 |
| 20260509173040 | 20 | 63 | 11.3 | 20.9 | 0.00 | 0.00 | 0.00 | 47 | 1010.7 |
| 20260509172538 | 20 | 114 | 11.3 | 17.7 | 0.00 | 0.00 | 0.00 | 46 | 1011.0 |
| 20260509172033 | 20 | 77 | 6.4 | 12.9 | 0.00 | 0.00 | 0.00 | 48 | 1010.9 |
| 20260509171530 | 20 | 75 | 4.8 | 16.1 | 0.00 | 0.00 | 0.00 | 49 | 1011.2 |
| 20260509171026 | 20 | 275 | 3.2 | 11.3 | 0.00 | 0.00 | 0.00 | 49 | 1011.3 |
| 20260509170521 | 20 | 1 | 4.8 | 11.3 | 0.00 | 0.00 | 0.00 | 48 | 1011.3 |
| 20260509170018 | 20 | 89 | 0.0 | 8.0 | 0.00 | 0.00 | 0.00 | 49 | 1011.4 |
| 20260509165517 | 20 | 181 | 0.0 | 4.8 | 0.00 | 0.00 | 0.00 | 46 | 1011.6 |
| 20260509165012 | 20 | 150 | 1.6 | 12.9 | 0.00 | 0.00 | 0.00 | 46 | 1011.5 |
| 20260509164509 | 20 | 176 | 6.4 | 11.3 | 0.00 | 0.00 | 0.00 | 45 | 1011.4 |
| 20260509164004 | 20 | 80 | 4.8 | 11.3 | 0.00 | 0.00 | 0.00 | 44 | 1011.4 |
| 20260509163502 | 21 | 107 | 8.0 | 12.9 | 0.00 | 0.00 | 0.00 | 45 | 1011.6 |
| 20260509163002 | 21 | 136 | 1.6 | 4.8 | 0.00 | 0.00 | 0.00 | 43 | 1011.4 |
| 20260509162500 | 21 | 34 | 4.8 | 8.0 | 0.00 | 0.00 | 0.00 | 43 | 1011.4 |
| 20260509161956 | 21 | 179 | 0.0 | 4.8 | 0.00 | 0.00 | 0.00 | 47 | 1011.4 |
| 20260509161452 | 21 | 132 | 6.4 | 11.3 | 0.00 | 0.00 | 0.00 | 44 | 1011.3 |
| 20260509160947 | 21 | 297 | 6.4 | 8.0 | 0.00 | 0.00 | 0.00 | 44 | 1011.2 |
| 20260509160444 | 20 | 62 | 1.6 | 4.8 | 0.00 | 0.00 | 0.00 | 47 | 1011.4 |
| 20260509155938 | 20 | 325 | 6.4 | 12.9 | 0.00 | 0.00 | 0.00 | 45 | 1011.2 |
| 20260509155436 | 20 | 234 | 4.8 | 11.3 | 0.00 | 0.00 | 0.00 | 45 | 1011.0 |
| 20260509154932 | 20 | 90 | 6.4 | 8.0 | 0.00 | 0.00 | 0.00 | 46 | 1011.0 |
| 20260509154428 | 20 | 134 | 0.0 | 8.0 | 0.00 | 0.00 | 0.00 | 45 | 1010.9 |
| 20260509153926 | 20 | 59 | 4.8 | 16.1 | 0.00 | 0.00 | 0.00 | 47 | 1011.4 |
| 20260509153422 | 20 | 195 | 0.0 | 16.1 | 0.00 | 0.00 | 0.00 | 46 | 1011.1 |
| 20260509152920 | 20 | 97 | 4.8 | 8.0 | 0.00 | 0.00 | 0.00 | 46 | 1011.3 |
| 20260509152415 | 20 | 114 | 8.0 | 11.3 | 0.00 | 0.00 | 0.00 | 47 | 1011.5 |
| 20260509151913 | 20 | 182 | 0.0 | 3.2 | 0.00 | 0.00 | 0.00 | 44 | 1011.4 |
| 20260509151408 | 20 | 89 | 1.6 | 4.8 | 0.00 | 0.00 | 0.00 | 46 | 1011.2 |
| 20260509150907 | 20 | 165 | 0.0 | 3.2 | 0.00 | 0.00 | 0.00 | 45 | 1011.5 |
| 20260509150404 | 20 | 177 | 8.0 | 8.0 | 0.00 | 0.00 | 0.00 | 46 | 1011.6 |
| 20260509145902 | 20 | 93 | 6.4 | 8.0 | 0.00 | 0.00 | 0.00 | 44 | 1011.6 |
| 20260509145401 | 20 | 168 | 3.2 | 8.0 | 0.00 | 0.00 | 0.00 | 46 | 1011.7 |
| 20260509144858 | 20 | 178 | 4.8 | 8.0 | 0.00 | 0.00 | 0.00 | 45 | 1011.8 |
| 20260509144355 | 20 | 356 | 4.8 | 8.0 | 0.00 | 0.00 | 0.00 | 48 | 1011.6 |
| 20260509143852 | 20 | 118 | 1.6 | 8.0 | 0.00 | 0.00 | 0.00 | 44 | 1011.8 |
| 20260509143349 | 19 | 83 | 4.8 | 8.0 | 0.00 | 0.00 | 0.00 | 44 | 1011.7 |
| 20260509142846 | 20 | 206 | 1.6 | 4.8 | 0.00 | 0.00 | 0.00 | 43 | 1011.7 |
| 20260509142342 | 19 | 146 | 1.6 | 4.8 | 0.00 | 0.00 | 0.00 | 44 | 1012.0 |
| 20260509141838 | 18 | 12 | 4.8 | 16.1 | 0.00 | 0.00 | 0.00 | 45 | 1012.2 |
| 20260509141335 | 19 | 180 | 4.8 | 4.8 | 0.00 | 0.00 | 0.00 | 46 | 1012.0 |
| 20260509140831 | 18 | 136 | 0.0 | 4.8 | 0.00 | 0.00 | 0.00 | 49 | 1011.9 |
| 20260509140328 | 18 | 324 | 4.8 | 8.0 | 0.00 | 0.00 | 0.00 | 47 | 1012.0 |
| 20260509135826 | 18 | 189 | 3.2 | 4.8 | 0.00 | 0.00 | 0.00 | 52 | 1012.3 |
| 20260509135323 | 17 | 186 | 0.0 | 3.2 | 0.00 | 0.00 | 0.00 | 51 | 1012.3 |
| 20260509134821 | 17 | 246 | 3.2 | 3.2 | 0.00 | 0.00 | 0.00 | 51 | 1012.5 |
| 20260509134318 | 17 | 249 | 3.2 | 4.8 | 0.00 | 0.00 | 0.00 | 52 | 1012.1 |
| 20260509133815 | 17 | 194 | 1.6 | 3.2 | 0.00 | 0.00 | 0.00 | 53 | 1012.4 |
| 20260509133311 | 16 | 195 | 0.0 | 4.8 | 0.00 | 0.00 | 0.00 | 55 | 1012.3 |
| 20260509132810 | 16 | 182 | 3.2 | 4.8 | 0.00 | 0.00 | 0.00 | 54 | 1012.3 |
| 20260509132308 | 16 | 195 | 0.0 | 4.8 | 0.00 | 0.00 | 0.00 | 53 | 1012.1 |
| 20260509131804 | 16 | 348 | 3.2 | 4.8 | 0.00 | 0.00 | 0.00 | 53 | 1012.2 |
| 20260509131301 | 16 | 308 | 3.2 | 4.8 | 0.00 | 0.00 | 0.00 | 51 | 1012.2 |
| 20260509130757 | 16 | 79 | 3.2 | 3.2 | 0.00 | 0.00 | 0.00 | 54 | 1012.2 |
| 20260509130253 | 15 | 172 | 0.0 | 3.2 | 0.00 | 0.00 | 0.00 | 56 | 1012.2 |
| 20260509125750 | 15 | 165 | 0.0 | 3.2 | 0.00 | 0.00 | 0.00 | 60 | 1012.3 |
| 20260509125247 | 15 | 189 | 1.6 | 3.2 | 0.00 | 0.00 | 0.00 | 59 | 1012.3 |
| 20260509124744 | 15 | 163 | 0.0 | 0.0 | 0.00 | 0.00 | 0.00 | 60 | 1012.3 |
| 20260509124240 | 15 | 168 | 0.0 | 0.0 | 0.00 | 0.00 | 0.00 | 61 | 1012.4 |
| 20260509123738 | 15 | 163 | 0.0 | 3.2 | 0.00 | 0.00 | 0.00 | 63 | 1012.0 |
| 20260509123235 | 15 | 171 | 1.6 | 3.2 | 0.00 | 0.00 | 0.00 | 58 | 1011.9 |
| 20260509122731 | 15 | 142 | 0.0 | 3.2 | 0.00 | 0.00 | 0.00 | 54 | 1012.0 |
| 20260509122228 | 15 | 157 | 0.0 | 0.0 | 0.00 | 0.00 | 0.00 | 55 | 1012.3 |
| 20260509121725 | 15 | 179 | 0.0 | 3.2 | 0.00 | 0.00 | 0.00 | 57 | 1012.2 |
| 20260509121222 | 15 | 155 | 0.0 | 3.2 | 0.00 | 0.00 | 0.00 | 56 | 1012.2 |
| 20260509120720 | 15 | 158 | 0.0 | 0.0 | 0.00 | 0.00 | 0.00 | 53 | 1012.1 |
| 20260509120218 | 15 | 339 | 3.2 | 3.2 | 0.00 | 0.00 | 0.00 | 54 | 1012.1 |
| 20260509115715 | 14 | 89 | 4.8 | 4.8 | 0.00 | 0.00 | 0.00 | 55 | 1012.2 |
| 20260509115212 | 14 | 248 | 1.6 | 4.8 | 0.00 | 0.00 | 0.00 | 60 | 1012.0 |
| 20260509114711 | 13 | 135 | 1.6 | 3.2 | 0.00 | 0.00 | 0.00 | 59 | 1011.9 |
| 20260509114209 | 13 | 177 | 0.0 | 0.0 | 0.00 | 0.00 | 0.00 | 59 | 1011.9 |
| 20260509113708 | 13 | 130 | 3.2 | 3.2 | 0.00 | 0.00 | 0.00 | 63 | 1011.9 |
| 20260509113204 | 13 | 28 | 3.2 | 3.2 | 0.00 | 0.00 | 0.00 | 60 | 1012.0 |
| 20260509112701 | 13 | 118 | 1.6 | 3.2 | 0.00 | 0.00 | 0.00 | 60 | 1011.9 |
| 20260509112158 | 13 | 140 | 0.0 | 3.2 | 0.00 | 0.00 | 0.00 | 60 | 1012.0 |
| 20260509111655 | 13 | 135 | 0.0 | 3.2 | 0.00 | 0.00 | 0.00 | 61 | 1011.9 |
| 20260509111151 | 13 | 174 | 0.0 | 3.2 | 0.00 | 0.00 | 0.00 | 59 | 1011.7 |
| 20260509110649 | 13 | 182 | 0.0 | 0.0 | 0.00 | 0.00 | 0.00 | 61 | 1012.0 |
| 20260509110145 | 13 | 161 | 0.0 | 3.2 | 0.00 | 0.00 | 0.00 | 58 | 1012.0 |
| 20260509105644 | 13 | 132 | 0.0 | 4.8 | 0.00 | 0.00 | 0.00 | 56 | 1011.9 |
| 20260509105141 | 13 | 96 | 1.6 | 3.2 | 0.00 | 0.00 | 0.00 | 61 | 1011.8 |
| 20260509104638 | 13 | 155 | 0.0 | 3.2 | 0.00 | 0.00 | 0.00 | 60 | 1011.8 |
| 20260509104135 | 12 | 133 | 0.0 | 3.2 | 0.00 | 0.00 | 0.00 | 60 | 1011.7 |
| 20260509103633 | 12 | 96 | 1.6 | 3.2 | 0.00 | 0.00 | 0.00 | 61 | 1011.8 |
| 20260509103130 | 12 | 176 | 0.0 | 3.2 | 0.00 | 0.00 | 0.00 | 63 | 1011.7 |
| 20260509102628 | 12 | 221 | 3.2 | 3.2 | 0.00 | 0.00 | 0.00 | 63 | 1011.8 |
| 20260509102124 | 13 | 220 | 3.2 | 3.2 | 0.00 | 0.00 | 0.00 | 58 | 1011.9 |
| 20260509101621 | 13 | 121 | 1.6 | 3.2 | 0.00 | 0.00 | 0.00 | 58 | 1011.9 |
| 20260509101118 | 13 | 241 | 8.0 | 8.0 | 0.00 | 0.00 | 0.00 | 61 | 1011.8 |
| 20260509100615 | 13 | 71 | 1.6 | 4.8 | 0.00 | 0.00 | 0.00 | 55 | 1011.6 |
| 20260509100112 | 12 | 158 | 0.0 | 3.2 | 0.00 | 0.00 | 0.00 | 60 | 1011.6 |
| 20260509095608 | 12 | 152 | 0.0 | 0.0 | 0.00 | 0.00 | 0.00 | 59 | 1011.8 |
| 20260509095106 | 12 | 164 | 1.6 | 3.2 | 0.00 | 0.00 | 0.00 | 59 | 1011.8 |
| 20260509094602 | 13 | 181 | 0.0 | 3.2 | 0.00 | 0.00 | 0.00 | 60 | 1012.0 |
| 20260509094059 | 13 | 124 | 0.0 | 0.0 | 0.00 | 0.00 | 0.00 | 59 | 1011.8 |
| 20260509093558 | 13 | 181 | 0.0 | 0.0 | 0.00 | 0.00 | 0.00 | 59 | 1011.9 |
| 20260509093055 | 13 | 188 | 0.0 | 3.2 | 0.00 | 0.00 | 0.00 | 57 | 1011.7 |
| 20260509092552 | 13 | 219 | 0.0 | 3.2 | 0.00 | 0.00 | 0.00 | 57 | 1011.8 |
| 20260509092051 | 13 | 156 | 0.0 | 0.0 | 0.00 | 0.00 | 0.00 | 56 | 1011.7 |
| 20260509091548 | 13 | 142 | 3.2 | 3.2 | 0.00 | 0.00 | 0.00 | 54 | 1011.9 |
| 20260509091044 | 13 | 225 | 1.6 | 3.2 | 0.00 | 0.00 | 0.00 | 56 | 1011.7 |
| 20260509090542 | 13 | 354 | 0.0 | 4.8 | 0.00 | 0.00 | 0.00 | 56 | 1011.6 |
| 20260509090040 | 13 | 159 | 0.0 | 4.8 | 0.00 | 0.00 | 0.00 | 54 | 1011.7 |
| 20260509085537 | 13 | 184 | 0.0 | 0.0 | 0.00 | 0.00 | 0.00 | 54 | 1011.8 |
| 20260509085033 | 13 | 196 | 0.0 | 4.8 | 0.00 | 0.00 | 0.00 | 54 | 1011.9 |
| 20260509084530 | 13 | 159 | 3.2 | 4.8 | 0.00 | 0.00 | 0.00 | 53 | 1011.9 |
| 20260509084027 | 14 | 106 | 1.6 | 4.8 | 0.00 | 0.00 | 0.00 | 53 | 1011.7 |
| 20260509083524 | 14 | 156 | 0.0 | 3.2 | 0.00 | 0.00 | 0.00 | 53 | 1012.0 |
| 20260509083021 | 14 | 144 | 1.6 | 4.8 | 0.00 | 0.00 | 0.00 | 52 | 1012.0 |
| 20260509082518 | 15 | 106 | 1.6 | 4.8 | 0.00 | 0.00 | 0.00 | 51 | 1012.1 |
| 20260509082015 | 15 | 82 | 4.8 | 4.8 | 0.00 | 0.00 | 0.00 | 51 | 1012.2 |
| 20260509081513 | 15 | 128 | 4.8 | 4.8 | 0.00 | 0.00 | 0.00 | 50 | 1011.9 |
| 20260509081009 | 15 | 55 | 3.2 | 8.0 | 0.00 | 0.00 | 0.00 | 49 | 1012.0 |
| 20260509080507 | 16 | 207 | 1.6 | 4.8 | 0.00 | 0.00 | 0.00 | 50 | 1012.1 |
| 20260509080005 | 16 | 174 | 4.8 | 8.0 | 0.00 | 0.00 | 0.00 | 44 | 1012.0 |
| 20260509075502 | 16 | 193 | 4.8 | 4.8 | 0.00 | 0.00 | 0.00 | 42 | 1012.1 |
| 20260509075000 | 16 | 208 | 4.8 | 4.8 | 0.00 | 0.00 | 0.00 | 43 | 1012.0 |
| 20260509074457 | 16 | 207 | 1.6 | 3.2 | 0.00 | 0.00 | 0.00 | 43 | 1012.1 |
| 20260509073953 | 16 | 191 | 4.8 | 11.3 | 0.00 | 0.00 | 0.00 | 43 | 1012.2 |
| 20260509073450 | 16 | 246 | 4.8 | 11.3 | 0.00 | 0.00 | 0.00 | 43 | 1011.8 |
| 20260509072946 | 16 | 196 | 3.2 | 16.1 | 0.00 | 0.00 | 0.00 | 43 | 1012.3 |
| 20260509072443 | 16 | 270 | 9.7 | 12.9 | 0.00 | 0.00 | 0.00 | 43 | 1012.2 |
| 20260509071940 | 16 | 230 | 3.2 | 8.0 | 0.00 | 0.00 | 0.00 | 44 | 1012.2 |
| 20260509071436 | 16 | 221 | 8.0 | 8.0 | 0.00 | 0.00 | 0.00 | 43 | 1012.0 |
| 20260509070934 | 16 | 176 | 11.3 | 16.1 | 0.00 | 0.00 | 0.00 | 43 | 1012.1 |
| 20260509070431 | 16 | 148 | 3.2 | 4.8 | 0.00 | 0.00 | 0.00 | 43 | 1012.1 |
| 20260509065926 | 16 | 250 | 4.8 | 8.0 | 0.00 | 0.00 | 0.00 | 43 | 1012.1 |
| 20260509065422 | 16 | 202 | 4.8 | 11.3 | 0.00 | 0.00 | 0.00 | 43 | 1012.1 |
| 20260509064919 | 16 | 169 | 3.2 | 11.3 | 0.00 | 0.00 | 0.00 | 43 | 1012.1 |
| 20260509064417 | 16 | 197 | 6.4 | 12.9 | 0.00 | 0.00 | 0.00 | 42 | 1012.4 |
| 20260509063914 | 16 | 191 | 3.2 | 12.9 | 0.00 | 0.00 | 0.00 | 43 | 1012.5 |
| 20260509063410 | 16 | 253 | 6.4 | 12.9 | 0.00 | 0.00 | 0.00 | 43 | 1012.5 |
| 20260509062907 | 16 | 201 | 14.5 | 20.9 | 0.00 | 0.00 | 0.00 | 43 | 1012.3 |
| 20260509062404 | 16 | 231 | 9.7 | 17.7 | 0.00 | 0.00 | 0.00 | 43 | 1012.5 |
| 20260509061902 | 16 | 200 | 8.0 | 22.5 | 0.00 | 0.00 | 0.00 | 43 | 1012.4 |
| 20260509061400 | 16 | 183 | 3.2 | 22.5 | 0.00 | 0.00 | 0.00 | 42 | 1012.4 |
| 20260509060856 | 16 | 125 | 6.4 | 25.7 | 0.00 | 0.00 | 0.00 | 43 | 1012.6 |
| 20260509060353 | 16 | 187 | 11.3 | 25.7 | 0.00 | 0.00 | 0.00 | 42 | 1012.5 |
| 20260509055848 | 17 | 175 | 11.3 | 17.7 | 0.00 | 0.00 | 0.00 | 42 | 1012.7 |
| 20260509055344 | 17 | 264 | 11.3 | 22.5 | 0.00 | 0.00 | 0.00 | 42 | 1012.5 |
| 20260509054841 | 17 | 214 | 9.7 | 16.1 | 0.00 | 0.00 | 0.00 | 42 | 1012.4 |
| 20260509054338 | 16 | 217 | 4.8 | 20.9 | 0.00 | 0.00 | 0.00 | 42 | 1012.5 |
| 20260509053836 | 16 | 231 | 8.0 | 20.9 | 0.00 | 0.00 | 0.00 | 42 | 1012.5 |
| 20260509053333 | 16 | 200 | 11.3 | 20.9 | 0.00 | 0.00 | 0.00 | 43 | 1012.4 |
| 20260509052832 | 16 | 181 | 11.3 | 25.7 | 0.00 | 0.00 | 0.00 | 43 | 1012.7 |
| 20260509052329 | 17 | 225 | 12.9 | 17.7 | 0.00 | 0.00 | 0.00 | 42 | 1012.3 |
| 20260509051826 | 17 | 239 | 8.0 | 17.7 | 0.00 | 0.00 | 0.00 | 41 | 1012.8 |
| 20260509051324 | 17 | 122 | 4.8 | 16.1 | 0.00 | 0.00 | 0.00 | 42 | 1012.5 |
| 20260509050820 | 17 | 215 | 1.6 | 12.9 | 0.00 | 0.00 | 0.00 | 43 | 1012.6 |
| 20260509050318 | 17 | 190 | 1.6 | 12.9 | 0.00 | 0.00 | 0.00 | 43 | 1012.8 |
| 20260509045814 | 17 | 214 | 8.0 | 16.1 | 0.00 | 0.00 | 0.00 | 43 | 1012.7 |
| 20260509045311 | 17 | 197 | 6.4 | 12.9 | 0.00 | 0.00 | 0.00 | 43 | 1012.8 |
| 20260509044808 | 17 | 203 | 14.5 | 16.1 | 0.00 | 0.00 | 0.00 | 43 | 1012.4 |
| 20260509044306 | 17 | 209 | 9.7 | 12.9 | 0.00 | 0.00 | 0.00 | 44 | 1012.5 |
| 20260509043802 | 17 | 171 | 8.0 | 20.9 | 0.00 | 0.00 | 0.00 | 44 | 1012.5 |
| 20260509043258 | 17 | 27 | 4.8 | 17.7 | 0.00 | 0.00 | 0.00 | 43 | 1012.6 |
| 20260509042754 | 17 | 234 | 9.7 | 16.1 | 0.00 | 0.00 | 0.00 | 44 | 1012.6 |
| 20260509042251 | 16 | 207 | 6.4 | 12.9 | 0.00 | 0.00 | 0.00 | 45 | 1012.5 |
| 20260509041748 | 15 | 189 | 6.4 | 11.3 | 0.00 | 0.00 | 0.00 | 48 | 1012.4 |
| 20260509041245 | 13 | 176 | 0.0 | 17.7 | 0.00 | 0.00 | 0.00 | 55 | 1012.5 |
| 20260509040743 | 13 | 338 | 1.6 | 4.8 | 0.00 | 0.00 | 0.00 | 63 | 1012.5 |
| 20260509040240 | 11 | 158 | 3.2 | 4.8 | 0.00 | 0.00 | 0.00 | 68 | 1012.6 |
| 20260509035737 | 11 | 355 | 4.8 | 4.8 | 0.00 | 0.00 | 0.00 | 69 | 1012.6 |
| 20260509035233 | 11 | 189 | 0.0 | 3.2 | 0.00 | 0.00 | 0.00 | 71 | 1012.6 |
| 20260509034731 | 11 | 136 | 0.0 | 0.0 | 0.00 | 0.00 | 0.00 | 70 | 1012.7 |
| 20260509034228 | 11 | 171 | 1.6 | 3.2 | 0.00 | 0.00 | 0.00 | 69 | 1013.0 |
| 20260509033725 | 11 | 130 | 4.8 | 8.0 | 0.00 | 0.00 | 0.00 | 68 | 1012.9 |
| 20260509033222 | 10 | 165 | 0.0 | 4.8 | 0.00 | 0.00 | 0.00 | 72 | 1012.9 |
| 20260509032719 | 10 | 59 | 1.6 | 4.8 | 0.00 | 0.00 | 0.00 | 74 | 1013.0 |
| 20260509032216 | 10 | 143 | 0.0 | 3.2 | 0.00 | 0.00 | 0.00 | 74 | 1012.9 |
| 20260509031714 | 10 | 173 | 0.0 | 0.0 | 0.00 | 0.00 | 0.00 | 74 | 1012.8 |
| 20260509031211 | 9 | 216 | 1.6 | 4.8 | 0.00 | 0.00 | 0.00 | 73 | 1012.7 |
| 20260509030709 | 8 | 147 | 0.0 | 0.0 | 0.00 | 0.00 | 0.00 | 76 | 1012.7 |
| 20260509030206 | 8 | 169 | 0.0 | 0.0 | 0.00 | 0.00 | 0.00 | 75 | 1013.1 |
| 20260509025702 | 9 | 121 | 0.0 | 3.2 | 0.00 | 0.00 | 0.00 | 75 | 1013.1 |
| 20260509025158 | 9 | 158 | 0.0 | 3.2 | 0.00 | 0.00 | 0.00 | 74 | 1012.8 |
| 20260509024653 | 9 | 156 | 0.0 | 0.0 | 0.00 | 0.00 | 0.00 | 74 | 1013.1 |
| 20260509024149 | 9 | 154 | 0.0 | 3.2 | 0.00 | 0.00 | 0.00 | 73 | 1013.0 |
| 20260509023648 | 9 | 169 | 0.0 | 0.0 | 0.00 | 0.00 | 0.00 | 72 | 1013.0 |
| 20260509023144 | 10 | 157 | 0.0 | 3.2 | 0.00 | 0.00 | 0.00 | 71 | 1013.1 |
| 20260509022640 | 10 | 152 | 0.0 | 3.2 | 0.00 | 0.00 | 0.00 | 72 | 1013.2 |
| 20260509022138 | 10 | 168 | 0.0 | 0.0 | 0.00 | 0.00 | 0.00 | 70 | 1012.9 |
| 20260509021635 | 10 | 169 | 0.0 | 0.0 | 0.00 | 0.00 | 0.00 | 70 | 1012.8 |
| 20260509021132 | 10 | 162 | 0.0 | 0.0 | 0.00 | 0.00 | 0.00 | 70 | 1013.1 |
| 20260509020630 | 10 | 162 | 0.0 | 0.0 | 0.00 | 0.00 | 0.00 | 68 | 1012.9 |
| 20260509020127 | 11 | 169 | 0.0 | 0.0 | 0.00 | 0.00 | 0.00 | 68 | 1012.9 |
| 20260509015626 | 11 | 169 | 0.0 | 0.0 | 0.00 | 0.00 | 0.00 | 68 | 1013.0 |
| 20260509015123 | 11 | 178 | 0.0 | 0.0 | 0.00 | 0.00 | 0.00 | 67 | 1012.9 |
| 20260509014619 | 11 | 167 | 0.0 | 0.0 | 0.00 | 0.00 | 0.00 | 67 | 1013.1 |
| 20260509014116 | 11 | 167 | 0.0 | 0.0 | 0.00 | 0.00 | 0.00 | 65 | 1013.0 |
| 20260509013613 | 12 | 167 | 0.0 | 3.2 | 0.00 | 0.00 | 0.00 | 65 | 1012.8 |
| 20260509013108 | 12 | 167 | 0.0 | 0.0 | 0.00 | 0.00 | 0.00 | 63 | 1012.9 |
| 20260509012606 | 13 | 166 | 0.0 | 0.0 | 0.00 | 0.00 | 0.00 | 62 | 1012.7 |
| 20260509012102 | 13 | 185 | 0.0 | 0.0 | 0.00 | 0.00 | 0.00 | 62 | 1012.8 |
| 20260509011600 | 13 | 192 | 0.0 | 3.2 | 0.00 | 0.00 | 0.00 | 59 | 1012.8 |
| 20260509011057 | 14 | 161 | 0.0 | 3.2 | 0.00 | 0.00 | 0.00 | 57 | 1012.8 |
| 20260509010555 | 14 | 160 | 3.2 | 4.8 | 0.00 | 0.00 | 0.00 | 58 | 1012.6 |
| 20260509010051 | 15 | 27 | 1.6 | 3.2 | 0.00 | 0.00 | 0.00 | 56 | 1012.6 |
| 20260509005549 | 15 | 203 | 0.0 | 3.2 | 0.00 | 0.00 | 0.00 | 53 | 1012.7 |
| 20260509005044 | 16 | 157 | 0.0 | 3.2 | 0.00 | 0.00 | 0.00 | 50 | 1012.7 |
| 20260509004541 | 16 | 163 | 0.0 | 3.2 | 0.00 | 0.00 | 0.00 | 52 | 1012.5 |
| 20260509004038 | 16 | 165 | 1.6 | 3.2 | 0.00 | 0.00 | 0.00 | 49 | 1012.4 |
| 20260509003536 | 17 | 214 | 0.0 | 4.8 | 0.00 | 0.00 | 0.00 | 50 | 1012.4 |
| 20260509003033 | 17 | 181 | 0.0 | 3.2 | 0.00 | 0.00 | 0.00 | 49 | 1012.2 |
| 20260509002531 | 17 | 185 | 0.0 | 3.2 | 0.00 | 0.00 | 0.00 | 48 | 1012.2 |
| 20260509002027 | 17 | 176 | 0.0 | 3.2 | 0.00 | 0.00 | 0.00 | 46 | 1012.2 |
| 20260509001525 | 17 | 157 | 0.0 | 0.0 | 0.00 | 0.00 | 0.00 | 47 | 1012.4 |
| 20260509001021 | 18 | 157 | 0.0 | 0.0 | 0.00 | 0.00 | 0.00 | 45 | 1012.2 |
| 20260509000519 | 18 | 150 | 0.0 | 0.0 | 0.00 | 0.00 | 0.00 | 45 | 1012.0 |
| 20260509000015 | 18 | 155 | 0.0 | 3.2 | 0.00 | 0.00 | 0.00 | 43 | 1012.2 |
| 20260508235513 | 18 | 163 | 0.0 | 0.0 | 0.00 | 0.00 | 0.00 | 46 | 1012.0 |
| 20260508235009 | 19 | 169 | 0.0 | 0.0 | 0.00 | 0.00 | 0.00 | 43 | 1011.9 |
| 20260508234507 | 20 | 174 | 0.0 | 0.0 | 0.00 | 0.00 | 0.00 | 39 | 1011.7 |
| 20260508234004 | 20 | 175 | 0.0 | 0.0 | 0.00 | 0.00 | 0.00 | 39 | 1012.0 |
| 20260508233503 | 20 | 172 | 0.0 | 0.0 | 0.00 | 0.00 | 0.00 | 39 | 1012.1 |
| 20260508233000 | 20 | 162 | 0.0 | 0.0 | 0.00 | 0.00 | 0.00 | 37 | 1011.9 |
| 20260508232457 | 20 | 159 | 0.0 | 0.0 | 0.00 | 0.00 | 0.00 | 39 | 1011.9 |
| 20260508231953 | 20 | 162 | 0.0 | 0.0 | 0.00 | 0.00 | 0.00 | 37 | 1011.9 |
| 20260508231451 | 20 | 161 | 0.0 | 3.2 | 0.00 | 0.00 | 0.00 | 37 | 1011.8 |
| 20260508230948 | 20 | 186 | 0.0 | 3.2 | 0.00 | 0.00 | 0.00 | 36 | 1012.0 |
| 20260508230444 | 20 | 158 | 1.6 | 4.8 | 0.00 | 0.00 | 0.00 | 35 | 1011.8 |
| 20260508225941 | 21 | 175 | 0.0 | 8.0 | 0.00 | 0.00 | 0.00 | 35 | 1011.8 |
| 20260508225438 | 21 | 200 | 4.8 | 4.8 | 0.00 | 0.00 | 0.00 | 33 | 1012.2 |
| 20260508224936 | 21 | 181 | 4.8 | 8.0 | 0.00 | 0.00 | 0.00 | 33 | 1012.1 |